Time,TemperatureF,DewpointF,PressureIn,WindDirection,WindDirectionDegrees,WindSpeedMPH,WindSpeedGustMPH,Humidity,HourlyPrecipIn,Conditions,Clouds,dailyrainin,SoftwareType,DateUTC
2013-03-29 00:03:00,36.0,30.0,-100.00,East,79,1.0,14.0,77,0.00,,,-99.99,,2013-03-29 04:03:00,
2013-03-29 00:13:00,37.0,32.0,-100.00,ENE,59,0.0,14.0,81,0.00,,,-99.99,,2013-03-29 04:13:00,
2013-03-29 00:22:00,36.0,32.0,-100.00,East,94,0.0,14.0,81,0.00,,,-99.99,,2013-03-29 04:22:00,
2013-03-29 00:33:00,34.0,30.0,-100.00,ENE,76,0.0,14.0,80,0.00,,,-99.99,,2013-03-29 04:33:00,
2013-03-29 00:43:00,35.0,30.0,-100.00,East,90,0.0,14.0,81,0.00,,,-99.99,,2013-03-29 04:43:00,
2013-03-29 00:52:00,36.0,32.0,-100.00,East,80,0.0,14.0,80,0.00,,,-99.99,,2013-03-29 04:52:00,
2013-03-29 01:03:00,37.0,32.0,-100.00,ENE,60,0.0,14.0,78,0.00,,,-99.99,,2013-03-29 05:03:00,
2013-03-29 01:13:00,37.0,32.0,-100.00,ENE,64,0.0,14.0,78,0.00,,,-99.99,,2013-03-29 05:13:00,
2013-03-29 01:23:00,37.0,32.0,-100.00,ENE,64,1.0,14.0,76,0.00,,,-99.99,,2013-03-29 05:23:00,
2013-03-29 01:33:00,38.0,32.0,-100.00,NE,55,1.0,14.0,76,0.00,,,-99.99,,2013-03-29 05:33:00,
2013-03-29 01:43:00,37.0,30.0,-100.00,ENE,66,1.0,14.0,72,0.00,,,-99.99,,2013-03-29 05:43:00,
2013-03-29 01:52:00,37.0,30.0,-100.00,ENE,63,1.0,14.0,72,0.00,,,-99.99,,2013-03-29 05:52:00,
2013-03-29 02:02:00,39.0,32.0,-100.00,ENE,64,1.0,14.0,75,0.00,,,-99.99,,2013-03-29 06:02:00,
2013-03-29 02:13:00,37.0,30.0,-100.00,East,83,1.0,14.0,73,0.00,,,-99.99,,2013-03-29 06:13:00,
2013-03-29 02:23:00,38.0,30.0,-100.00,ENE,70,0.0,14.0,73,0.00,,,-99.99,,2013-03-29 06:23:00,
2013-03-29 02:32:00,38.0,30.0,-100.00,ENE,66,0.0,14.0,73,0.00,,,-99.99,,2013-03-29 06:32:00,
2013-03-29 02:42:00,36.0,28.0,-100.00,ENE,72,1.0,14.0,71,0.00,,,-99.99,,2013-03-29 06:42:00,
2013-03-29 02:52:00,38.0,30.0,-100.00,East,86,1.0,14.0,72,0.00,,,-99.99,,2013-03-29 06:52:00,
2013-03-29 03:03:00,37.0,30.0,-100.00,ENE,72,1.0,14.0,72,0.00,,,-99.99,,2013-03-29 07:03:00,
2013-03-29 03:12:00,38.0,28.0,-100.00,East,80,1.0,14.0,69,0.00,,,-99.99,,2013-03-29 07:12:00,
2013-03-29 03:22:00,36.0,27.0,-100.00,ENE,72,1.0,1.0,69,0.00,,,-99.99,,2013-03-29 07:22:00,
2013-03-29 03:32:00,38.0,30.0,-100.00,ENE,70,1.0,1.0,69,0.00,,,-99.99,,2013-03-29 07:32:00,
2013-03-29 03:42:00,36.0,28.0,-100.00,East,87,0.0,1.0,71,0.00,,,-99.99,,2013-03-29 07:42:00,
2013-03-29 03:52:00,36.0,28.0,-100.00,NE,52,1.0,1.0,71,0.00,,,-99.99,,2013-03-29 07:52:00,
2013-03-29 04:02:00,34.0,27.0,-100.00,ENE,63,1.0,1.0,71,0.00,,,-99.99,,2013-03-29 08:02:00,
2013-03-29 04:12:00,35.0,28.0,-100.00,ENE,57,1.0,1.0,71,0.00,,,-99.99,,2013-03-29 08:12:00,
2013-03-29 04:22:00,34.0,27.0,-100.00,East,79,0.0,1.0,72,0.00,,,-99.99,,2013-03-29 08:22:00,
2013-03-29 04:32:00,34.0,28.0,-100.00,ENE,72,0.0,1.0,75,0.00,,,-99.99,,2013-03-29 08:32:00,
2013-03-29 04:42:00,33.0,27.0,-100.00,ESE,117,0.0,1.0,75,0.00,,,-99.99,,2013-03-29 08:42:00,
2013-03-29 04:52:00,32.0,25.0,-100.00,ENE,67,0.0,1.0,73,0.00,,,-99.99,,2013-03-29 08:52:00,
2013-03-29 05:02:00,34.0,28.0,-100.00,ENE,72,1.0,1.0,75,0.00,,,-99.99,,2013-03-29 09:02:00,
2013-03-29 05:13:00,34.0,28.0,-100.00,ENE,72,1.0,1.0,75,0.00,,,-99.99,,2013-03-29 09:13:00,
2013-03-29 05:22:00,33.0,27.0,-100.00,ESE,104,0.0,1.0,76,0.00,,,-99.99,,2013-03-29 09:22:00,
2013-03-29 05:33:00,34.0,28.0,-100.00,NE,56,0.0,1.0,75,0.00,,,-99.99,,2013-03-29 09:33:00,
2013-03-29 05:43:00,34.0,28.0,-100.00,NE,53,1.0,1.0,76,0.00,,,-99.99,,2013-03-29 09:43:00,
2013-03-29 05:52:00,32.0,27.0,-100.00,ENE,72,0.0,1.0,77,0.00,,,-99.99,,2013-03-29 09:52:00,
2013-03-29 06:03:00,32.0,27.0,-100.00,ENE,74,0.0,1.0,77,0.00,,,-99.99,,2013-03-29 10:03:00,
2013-03-29 06:12:00,32.0,27.0,-100.00,ENE,72,0.0,1.0,77,0.00,,,-99.99,,2013-03-29 10:12:00,
2013-03-29 06:23:00,33.0,28.0,-100.00,ENE,64,0.0,1.0,78,0.00,,,-99.99,,2013-03-29 10:23:00,
2013-03-29 06:33:00,32.0,27.0,-100.00,East,93,0.0,1.0,77,0.00,,,-99.99,,2013-03-29 10:33:00,
2013-03-29 06:42:00,32.0,27.0,-100.00,East,84,0.0,1.0,77,0.00,,,-99.99,,2013-03-29 10:42:00,
2013-03-29 06:52:00,32.0,27.0,-100.00,East,87,0.0,1.0,77,0.00,,,-99.99,,2013-03-29 10:52:00,
2013-03-29 07:03:00,32.0,27.0,-100.00,East,93,0.0,1.0,78,0.00,,,-99.99,,2013-03-29 11:03:00,
2013-03-29 07:12:00,28.0,23.0,-100.00,East,91,1.0,1.0,78,0.00,,,-99.99,,2013-03-29 11:12:00,
2013-03-29 07:23:00,30.0,27.0,-100.00,East,98,0.0,1.0,82,0.00,,,-99.99,,2013-03-29 11:23:00,
2013-03-29 07:33:00,30.0,27.0,-100.00,East,97,0.0,1.0,82,0.00,,,-99.99,,2013-03-29 11:33:00,
2013-03-29 07:42:00,30.0,27.0,-100.00,East,84,0.0,1.0,84,0.00,,,-99.99,,2013-03-29 11:42:00,
2013-03-29 07:52:00,31.0,27.0,-100.00,East,88,0.0,1.0,84,0.00,,,-99.99,,2013-03-29 11:52:00,
2013-03-29 08:03:00,31.0,27.0,-100.00,East,93,0.0,1.0,82,0.00,,,-99.99,,2013-03-29 12:03:00,
2013-03-29 08:13:00,31.0,27.0,-100.00,ESE,104,0.0,1.0,81,0.00,,,-99.99,,2013-03-29 12:13:00,
2013-03-29 08:22:00,33.0,28.0,-100.00,East,96,0.0,1.0,78,0.00,,,-99.99,,2013-03-29 12:22:00,
2013-03-29 08:32:00,32.0,27.0,-100.00,East,100,1.0,1.0,78,0.00,,,-99.99,,2013-03-29 12:32:00,
2013-03-29 08:42:00,34.0,28.0,-100.00,ENE,73,0.0,1.0,78,0.00,,,-99.99,,2013-03-29 12:42:00,
2013-03-29 08:52:00,33.0,27.0,-100.00,ENE,67,0.0,1.0,76,0.00,,,-99.99,,2013-03-29 12:52:00,
2013-03-29 09:03:00,34.0,27.0,-100.00,NNE,25,0.0,1.0,73,0.00,,,-99.99,,2013-03-29 13:03:00,
2013-03-29 09:13:00,34.0,27.0,-100.00,ENE,62,0.0,1.0,72,0.00,,,-99.99,,2013-03-29 13:13:00,
2013-03-29 09:22:00,34.0,27.0,-100.00,NE,46,1.0,1.0,73,0.00,,,-99.99,,2013-03-29 13:22:00,
2013-03-29 09:33:00,36.0,28.0,-100.00,NE,50,0.0,1.0,73,0.00,,,-99.99,,2013-03-29 13:33:00,
2013-03-29 09:43:00,37.0,28.0,-100.00,ENE,76,0.0,1.0,69,0.00,,,-99.99,,2013-03-29 13:43:00,
2013-03-29 09:52:00,40.0,32.0,-100.00,ENE,73,1.0,1.0,71,0.00,,,-99.99,,2013-03-29 13:52:00,
2013-03-29 10:03:00,40.0,30.0,-100.00,East,90,0.0,1.0,67,0.00,,,-99.99,,2013-03-29 14:03:00,
2013-03-29 10:12:00,40.0,30.0,-100.00,East,90,0.0,1.0,67,0.00,,,-99.99,,2013-03-29 14:12:00,
2013-03-29 10:22:00,39.0,27.0,-100.00,East,87,1.0,1.0,59,0.00,,,-99.99,,2013-03-29 14:22:00,
2013-03-29 10:33:00,42.0,28.0,-100.00,East,90,1.0,1.0,56,0.00,,,-99.99,,2013-03-29 14:33:00,
2013-03-29 10:42:00,43.0,28.0,-100.00,ENE,72,1.0,1.0,55,0.00,,,-99.99,,2013-03-29 14:42:00,
2013-03-29 10:52:00,43.0,28.0,-100.00,SE,129,1.0,1.0,55,0.00,,,-99.99,,2013-03-29 14:52:00,
2013-03-29 11:02:00,44.0,28.0,-100.00,ESE,105,0.0,1.0,51,0.00,,,-99.99,,2013-03-29 15:02:00,
2013-03-29 11:12:00,46.0,28.0,-100.00,South,176,1.0,2.0,47,0.00,,,-99.99,,2013-03-29 15:12:00,
2013-03-29 11:22:00,46.0,28.0,-100.00,ESE,115,1.0,2.0,47,0.00,,,-99.99,,2013-03-29 15:22:00,
2013-03-29 11:33:00,47.0,25.0,-100.00,East,98,4.0,6.0,41,0.00,,,-99.99,,2013-03-29 15:33:00,
2013-03-29 11:43:00,46.0,23.0,-100.00,SSE,168,5.0,6.0,40,0.00,,,-99.99,,2013-03-29 15:43:00,
2013-03-29 11:52:00,46.0,25.0,-100.00,ESE,104,5.0,6.0,41,0.00,,,-99.99,,2013-03-29 15:52:00,
2013-03-29 12:03:00,48.0,27.0,-100.00,East,94,3.0,6.0,42,0.00,,,-99.99,,2013-03-29 16:03:00,
2013-03-29 12:13:00,48.0,27.0,-100.00,East,81,5.0,8.0,40,0.00,,,-99.99,,2013-03-29 16:13:00,
2013-03-29 12:23:00,47.0,25.0,-100.00,East,93,6.0,8.0,40,0.00,,,-99.99,,2013-03-29 16:23:00,
2013-03-29 12:33:00,48.0,23.0,-100.00,SE,139,6.0,8.0,36,0.00,,,-99.99,,2013-03-29 16:33:00,
2013-03-29 12:43:00,48.0,21.0,-100.00,SE,144,6.0,8.0,33,0.00,,,-99.99,,2013-03-29 16:43:00,
2013-03-29 12:52:00,49.0,25.0,-100.00,ESE,114,7.0,8.0,36,0.00,,,-99.99,,2013-03-29 16:52:00,
2013-03-29 13:03:00,49.0,23.0,-100.00,East,97,8.0,10.0,34,0.00,,,-99.99,,2013-03-29 17:03:00,
2013-03-29 13:12:00,48.0,25.0,-100.00,East,93,9.0,10.0,38,0.00,,,-99.99,,2013-03-29 17:12:00,
2013-03-29 13:22:00,50.0,25.0,-100.00,SE,131,7.0,10.0,37,0.00,,,-99.99,,2013-03-29 17:22:00,
2013-03-29 13:33:00,52.0,25.0,-100.00,East,79,3.0,10.0,33,0.00,,,-99.99,,2013-03-29 17:33:00,
2013-03-29 13:43:00,52.0,25.0,-100.00,ENE,64,6.0,10.0,34,0.00,,,-99.99,,2013-03-29 17:43:00,
2013-03-29 13:52:00,50.0,23.0,-100.00,East,86,6.0,10.0,34,0.00,,,-99.99,,2013-03-29 17:52:00,
2013-03-29 14:02:00,50.0,25.0,-100.00,SE,146,6.0,10.0,36,0.00,,,-99.99,,2013-03-29 18:02:00,
2013-03-29 14:12:00,51.0,25.0,-100.00,ESE,115,6.0,10.0,34,0.00,,,-99.99,,2013-03-29 18:12:00,
2013-03-29 14:23:00,50.0,21.0,-100.00,SE,124,6.0,10.0,32,0.00,,,-99.99,,2013-03-29 18:23:00,
2013-03-29 14:32:00,50.0,19.0,-100.00,ENE,69,7.0,10.0,29,0.00,,,-99.99,,2013-03-29 18:32:00,
2013-03-29 14:42:00,53.0,25.0,-100.00,SE,129,5.0,10.0,31,0.00,,,-99.99,,2013-03-29 18:42:00,
2013-03-29 14:52:00,53.0,25.0,-100.00,East,86,8.0,10.0,33,0.00,,,-99.99,,2013-03-29 18:52:00,
2013-03-29 15:03:00,51.0,23.0,-100.00,SE,127,7.0,10.0,33,0.00,,,-99.99,,2013-03-29 19:03:00,
2013-03-29 15:12:00,53.0,25.0,-100.00,East,87,9.0,15.0,32,0.00,,,-99.99,,2013-03-29 19:12:00,
2013-03-29 15:23:00,51.0,23.0,-100.00,ESE,114,9.0,15.0,33,0.00,,,-99.99,,2013-03-29 19:23:00,
2013-03-29 15:33:00,54.0,25.0,-100.00,SE,139,9.0,15.0,31,0.00,,,-99.99,,2013-03-29 19:33:00,
2013-03-29 15:43:00,51.0,23.0,-100.00,East,88,7.0,15.0,32,0.00,,,-99.99,,2013-03-29 19:43:00,
2013-03-29 15:52:00,51.0,23.0,-100.00,SE,131,4.0,15.0,33,0.00,,,-99.99,,2013-03-29 19:52:00,
2013-03-29 16:03:00,53.0,23.0,-100.00,SE,136,7.0,15.0,31,0.00,,,-99.99,,2013-03-29 20:03:00,
2013-03-29 16:12:00,51.0,25.0,-100.00,SE,136,8.0,15.0,34,0.00,,,-99.99,,2013-03-29 20:12:00,
2013-03-29 16:22:00,52.0,25.0,-100.00,SE,132,7.0,15.0,33,0.00,,,-99.99,,2013-03-29 20:22:00,
2013-03-29 16:33:00,50.0,21.0,-100.00,East,83,5.0,15.0,31,0.00,,,-99.99,,2013-03-29 20:33:00,
2013-03-29 16:42:00,52.0,23.0,-100.00,SE,145,8.0,15.0,31,0.00,,,-99.99,,2013-03-29 20:42:00,
2013-03-29 16:52:00,52.0,23.0,-100.00,SE,141,9.0,15.0,32,0.00,,,-99.99,,2013-03-29 20:52:00,
2013-03-29 17:02:00,54.0,25.0,-100.00,ENE,73,9.0,15.0,32,0.00,,,-99.99,,2013-03-29 21:02:00,
2013-03-29 17:12:00,54.0,25.0,-100.00,ENE,73,9.0,15.0,32,0.00,,,-99.99,,2013-03-29 21:12:00,
2013-03-29 17:22:00,54.0,25.0,-100.00,East,91,7.0,15.0,31,0.00,,,-99.99,,2013-03-29 21:22:00,
2013-03-29 17:33:00,52.0,25.0,-100.00,East,101,7.0,15.0,33,0.00,,,-99.99,,2013-03-29 21:33:00,
2013-03-29 17:43:00,53.0,27.0,-100.00,ESE,112,6.0,15.0,34,0.00,,,-99.99,,2013-03-29 21:43:00,
2013-03-29 17:53:00,51.0,23.0,-100.00,ESE,122,7.0,15.0,33,0.00,,,-99.99,,2013-03-29 21:53:00,
2013-03-29 18:03:00,52.0,25.0,-100.00,SSE,155,8.0,15.0,34,0.00,,,-99.99,,2013-03-29 22:03:00,
2013-03-29 18:13:00,53.0,25.0,-100.00,ESE,103,7.0,15.0,32,0.00,,,-99.99,,2013-03-29 22:13:00,
2013-03-29 18:23:00,52.0,27.0,-100.00,SE,141,6.0,15.0,36,0.00,,,-99.99,,2013-03-29 22:23:00,
2013-03-29 18:33:00,49.0,25.0,-100.00,SSE,155,6.0,15.0,38,0.00,,,-99.99,,2013-03-29 22:33:00,
2013-03-29 18:42:00,50.0,25.0,-100.00,SSE,155,6.0,15.0,37,0.00,,,-99.99,,2013-03-29 22:42:00,
2013-03-29 18:53:00,50.0,28.0,-100.00,SSE,149,6.0,15.0,40,0.00,,,-99.99,,2013-03-29 22:53:00,
2013-03-29 19:03:00,51.0,27.0,-100.00,SE,127,7.0,15.0,37,0.00,,,-99.99,,2013-03-29 23:03:00,
2013-03-29 19:12:00,49.0,27.0,-100.00,SSE,153,6.0,15.0,41,0.00,,,-99.99,,2013-03-29 23:12:00,
2013-03-29 19:22:00,49.0,27.0,-100.00,SE,139,7.0,15.0,40,0.00,,,-99.99,,2013-03-29 23:22:00,
2013-03-29 19:32:00,49.0,27.0,-100.00,ESE,121,7.0,15.0,40,0.00,,,-99.99,,2013-03-29 23:32:00,
2013-03-29 19:42:00,48.0,27.0,-100.00,SSE,152,6.0,15.0,42,0.00,,,-99.99,,2013-03-29 23:42:00,
2013-03-29 19:52:00,47.0,28.0,-100.00,SSE,159,4.0,15.0,46,0.00,,,-99.99,,2013-03-29 23:52:00,
2013-03-29 20:03:00,45.0,27.0,-100.00,SSE,149,4.0,15.0,45,0.00,,,-99.99,,2013-03-30 00:03:00,
2013-03-29 20:12:00,44.0,27.0,-100.00,SSE,160,3.0,15.0,47,0.00,,,-99.99,,2013-03-30 00:12:00,
2013-03-29 20:22:00,44.0,28.0,-100.00,SSE,168,3.0,15.0,51,0.00,,,-99.99,,2013-03-30 00:22:00,
2013-03-29 20:32:00,43.0,27.0,-100.00,South,176,2.0,15.0,51,0.00,,,-99.99,,2013-03-30 00:32:00,
2013-03-29 20:43:00,43.0,27.0,-100.00,South,189,1.0,15.0,50,0.00,,,-99.99,,2013-03-30 00:43:00,
2013-03-29 20:52:00,42.0,25.0,-100.00,South,182,1.0,15.0,50,0.00,,,-99.99,,2013-03-30 00:52:00,
2013-03-29 21:03:00,41.0,27.0,-100.00,South,187,1.0,15.0,53,0.00,,,-99.99,,2013-03-30 01:03:00,
2013-03-29 21:13:00,41.0,27.0,-100.00,SSW,204,1.0,15.0,53,0.00,,,-99.99,,2013-03-30 01:13:00,
2013-03-29 21:22:00,43.0,27.0,-100.00,South,184,1.0,15.0,50,0.00,,,-99.99,,2013-03-30 01:22:00,
2013-03-29 21:33:00,42.0,27.0,-100.00,SSW,192,1.0,15.0,51,0.00,,,-99.99,,2013-03-30 01:33:00,
2013-03-29 21:43:00,42.0,27.0,-100.00,SSE,148,0.0,15.0,54,0.00,,,-99.99,,2013-03-30 01:43:00,
2013-03-29 21:52:00,40.0,27.0,-100.00,SSE,153,0.0,15.0,55,0.00,,,-99.99,,2013-03-30 01:52:00,
2013-03-29 22:03:00,40.0,27.0,-100.00,SSE,153,0.0,15.0,55,0.00,,,-99.99,,2013-03-30 02:03:00,
2013-03-29 22:13:00,39.0,25.0,-100.00,South,183,1.0,15.0,55,0.00,,,-99.99,,2013-03-30 02:13:00,
2013-03-29 22:22:00,39.0,25.0,-100.00,South,183,1.0,15.0,55,0.00,,,-99.99,,2013-03-30 02:22:00,
2013-03-29 22:33:00,39.0,23.0,-100.00,SW,223,0.0,15.0,51,0.00,,,-99.99,,2013-03-30 02:33:00,
2013-03-29 22:43:00,38.0,21.0,-100.00,SSW,208,1.0,15.0,49,0.00,,,-99.99,,2013-03-30 02:43:00,
2013-03-29 22:52:00,39.0,23.0,-100.00,WSW,240,0.0,15.0,50,0.00,,,-99.99,,2013-03-30 02:52:00,
2013-03-29 23:03:00,37.0,21.0,-100.00,SSW,203,0.0,15.0,50,0.00,,,-99.99,,2013-03-30 03:03:00,
2013-03-29 23:12:00,36.0,23.0,-100.00,East,84,0.0,15.0,58,0.00,,,-99.99,,2013-03-30 03:12:00,
2013-03-29 23:22:00,36.0,25.0,-100.00,East,86,0.0,15.0,60,0.00,,,-99.99,,2013-03-30 03:22:00,
2013-03-29 23:33:00,36.0,25.0,-100.00,WNW,295,0.0,15.0,59,0.00,,,-99.99,,2013-03-30 03:33:00,
2013-03-29 23:43:00,36.0,25.0,-100.00,WNW,295,0.0,15.0,59,0.00,,,-99.99,,2013-03-30 03:43:00,
2013-03-29 23:53:00,34.0,25.0,-100.00,ENE,69,0.0,15.0,69,0.00,,,-99.99,,2013-03-30 03:53:00,